createdAt,value
2023-04-10T06:20:43.402Z,6.17
2023-04-10T06:30:43.408Z,5.38
2023-04-10T06:40:43.408Z,5.46
2023-04-10T06:50:43.463Z,6.10
2023-04-10T07:00:43.650Z,6.94
2023-04-10T07:10:43.573Z,6.58
2023-04-10T07:20:43.361Z,7.89
2023-04-10T07:30:43.498Z,8.21
2023-04-10T07:40:43.471Z,11.07
2023-04-10T07:50:43.431Z,0.82
2023-04-10T08:00:43.497Z,0.00
2023-04-10T08:10:43.496Z,0.00
2023-04-10T08:20:43.630Z,0.00
2023-04-10T08:30:43.495Z,0.00
2023-04-10T08:40:43.610Z,0.00
2023-04-10T08:50:43.683Z,0.00
2023-04-10T09:00:44.000Z,0.00
2023-04-10T09:10:43.851Z,0.00
2023-04-10T09:20:43.911Z,0.00
2023-04-10T09:30:44.083Z,0.00
2023-04-10T09:40:43.947Z,0.00
2023-04-10T09:50:43.933Z,0.00
2023-04-10T10:00:43.976Z,0.00
2023-04-10T10:10:43.828Z,0.00
2023-04-10T10:20:44.019Z,0.00
2023-04-10T10:30:43.875Z,0.00
2023-04-10T10:40:43.944Z,0.00
2023-04-10T10:50:44.126Z,0.00
2023-04-10T11:00:43.988Z,0.00
2023-04-10T11:10:44.079Z,0.00
2023-04-10T11:20:44.112Z,0.00
2023-04-10T11:30:44.062Z,0.00
2023-04-10T11:40:44.236Z,0.00
2023-04-10T11:50:43.988Z,0.00
2023-04-10T12:00:44.177Z,0.00
2023-04-10T12:10:44.164Z,0.00
2023-04-10T12:20:43.946Z,0.00
2023-04-10T12:40:44.753Z,0.00
2023-04-10T12:50:44.706Z,0.00
2023-04-10T13:00:44.573Z,0.00
2023-04-10T13:10:44.737Z,0.00
2023-04-10T13:20:44.701Z,0.00
2023-04-10T13:30:44.658Z,0.00
2023-04-10T13:40:44.625Z,0.00
2023-04-10T13:50:44.798Z,0.00
2023-04-10T14:00:44.732Z,0.00
2023-04-10T14:10:44.668Z,0.00
2023-04-10T14:20:44.725Z,0.00
2023-04-10T14:30:44.857Z,0.00
2023-04-10T14:40:44.628Z,0.00
2023-04-10T14:50:44.986Z,0.00
2023-04-10T15:00:44.855Z,0.00
2023-04-10T15:10:44.916Z,0.00
2023-04-10T15:20:45.298Z,0.00
2023-04-10T15:30:45.339Z,0.00
2023-04-10T15:40:45.203Z,0.00
2023-04-10T15:50:45.379Z,0.00
2023-04-10T16:00:45.145Z,0.00
2023-04-10T16:10:45.001Z,0.00
2023-04-10T16:20:45.282Z,0.00
2023-04-10T16:30:45.238Z,0.00
2023-04-10T16:40:45.303Z,0.00
2023-04-10T16:50:45.157Z,0.00
2023-04-10T17:00:45.309Z,0.00
2023-04-10T17:10:45.151Z,0.00
2023-04-10T17:20:47.069Z,0.00
2023-04-10T17:30:45.225Z,0.00
2023-04-10T17:40:45.193Z,0.00
2023-04-10T17:50:45.074Z,10.28
2023-04-10T18:00:45.233Z,19.06
2023-04-10T18:10:45.220Z,18.91
2023-04-10T18:20:45.559Z,16.63
2023-04-10T18:30:45.162Z,16.14
2023-04-10T18:40:45.280Z,16.57
2023-04-10T18:50:45.242Z,16.51
2023-04-10T19:00:45.312Z,16.52
2023-04-10T19:10:45.300Z,17.15
2023-04-10T19:20:48.978Z,18.94
